createdAt,value
2022-08-27T00:00:39.918Z,21.20
2022-08-27T00:01:43.143Z,23.05
2022-08-27T00:02:47.393Z,21.60
2022-08-27T00:03:50.168Z,23.77
2022-08-27T00:04:53.399Z,28.75
2022-08-27T00:05:55.490Z,21.05
2022-08-27T00:07:00.083Z,17.67
2022-08-27T00:08:02.417Z,17.85
2022-08-27T00:09:06.138Z,22.60
2022-08-27T00:10:10.599Z,19.50
2022-08-27T00:11:14.966Z,30.80
2022-08-27T00:12:17.233Z,20.25
2022-08-27T00:13:20.349Z,25.20
2022-08-27T00:14:22.848Z,27.58
2022-08-27T00:15:26.366Z,24.65
2022-08-27T00:16:28.972Z,25.20
2022-08-27T00:17:35.193Z,19.33
2022-08-27T00:18:39.101Z,22.67
2022-08-27T00:19:42.295Z,24.98
2022-08-27T00:20:44.561Z,22.30
2022-08-27T00:21:47.611Z,23.98
2022-08-27T00:22:51.079Z,18.60
2022-08-27T00:23:54.636Z,23.50
2022-08-27T00:24:56.674Z,21.08
2022-08-27T00:26:00.589Z,25.98
2022-08-27T00:27:02.830Z,25.45
2022-08-27T00:28:06.296Z,30.38
2022-08-27T00:29:08.560Z,26.10
2022-08-27T00:30:15.585Z,24.88
2022-08-27T00:31:18.091Z,23.92
2022-08-27T00:32:21.213Z,28.40
2022-08-27T00:33:24.162Z,25.75
2022-08-27T00:34:27.708Z,24.98
2022-08-27T00:35:29.809Z,23.90
2022-08-27T00:36:32.944Z,27.42
2022-08-27T00:37:35.330Z,23.05
2022-08-27T00:38:41.169Z,26.30
2022-08-27T00:39:43.331Z,21.85
2022-08-27T00:40:46.851Z,27.15
2022-08-27T00:41:49.080Z,28.20
2022-08-27T00:42:52.187Z,31.65
2022-08-27T00:43:57.415Z,24.35
2022-08-27T00:45:00.772Z,23.55
2022-08-27T00:46:08.083Z,28.05
2022-08-27T00:47:14.950Z,29.77
2022-08-27T00:48:21.212Z,24.50
2022-08-27T00:49:28.890Z,25.98
2022-08-27T00:50:34.143Z,23.40
2022-08-27T00:51:38.665Z,24.42
2022-08-27T00:52:45.270Z,27.83
2022-08-27T00:53:50.426Z,27.67
2022-08-27T00:54:57.288Z,27.90
2022-08-27T00:56:05.852Z,27.48
2022-08-27T00:57:08.207Z,26.90
2022-08-27T00:58:17.851Z,29.70
2022-08-27T00:59:23.635Z,33.15
2022-08-27T01:00:26.891Z,27.60
2022-08-27T01:01:31.910Z,30.23
2022-08-27T01:02:38.916Z,30.90
2022-08-27T01:03:45.076Z,28.30
2022-08-27T01:04:55.254Z,30.63
2022-08-27T01:05:59.759Z,37.25
2022-08-27T01:07:03.523Z,38.17
2022-08-27T01:08:10.712Z,36.88
2022-08-27T01:09:17.264Z,34.03
2022-08-27T01:10:23.932Z,30.40
2022-08-27T01:11:26.305Z,27.33
2022-08-27T01:12:32.830Z,30.00
2022-08-27T01:13:59.156Z,32.42
2022-08-27T01:14:58.816Z,30.33
2022-08-27T01:16:01.622Z,32.20
2022-08-27T01:17:07.253Z,31.83
2022-08-27T01:18:13.367Z,33.45
2022-08-27T01:19:24.092Z,28.30
2022-08-27T01:21:37.120Z,38.90
2022-08-27T01:22:50.905Z,34.90
2022-08-27T01:23:59.453Z,29.15
2022-08-27T01:25:09.089Z,34.45
2022-08-27T01:26:14.879Z,33.08
2022-08-27T01:27:21.987Z,34.22
2022-08-27T01:28:29.242Z,25.42
2022-08-27T01:29:41.037Z,33.00
2022-08-27T01:30:44.509Z,33.00
2022-08-27T01:31:46.641Z,33.78
2022-08-27T01:32:50.311Z,32.72
2022-08-27T01:33:57.407Z,34.15
2022-08-27T01:35:01.893Z,31.00
2022-08-27T01:36:05.773Z,30.45
2022-08-27T01:37:09.476Z,41.58
2022-08-27T01:38:30.015Z,39.78
2022-08-27T01:39:33.906Z,33.25
2022-08-27T01:40:38.403Z,35.90
2022-08-27T01:41:40.523Z,32.15
2022-08-27T01:42:46.176Z,34.85
2022-08-27T01:43:48.871Z,37.90
2022-08-27T01:44:54.670Z,33.38
2022-08-27T01:45:57.007Z,34.28
2022-08-27T01:47:00.173Z,34.42
2022-08-27T01:48:04.473Z,32.50
2022-08-27T01:49:06.541Z,30.42
2022-08-27T01:50:14.054Z,36.05
2022-08-27T01:51:16.363Z,35.10
2022-08-27T01:52:27.024Z,36.10
2022-08-27T01:54:32.087Z,36.78
2022-08-27T01:55:35.550Z,29.58
2022-08-27T01:56:38.998Z,34.17
2022-08-27T01:57:42.338Z,41.63
2022-08-27T01:58:45.607Z,36.65
2022-08-27T01:59:48.861Z,32.40
2022-08-27T02:00:56.537Z,33.42
2022-08-27T02:02:00.602Z,38.03
2022-08-27T02:03:04.293Z,33.63
2022-08-27T02:04:06.499Z,32.40
2022-08-27T02:05:10.477Z,32.80
2022-08-27T02:06:12.729Z,29.25
2022-08-27T02:07:15.867Z,39.72
2022-08-27T02:08:18.673Z,38.47
2022-08-27T02:09:21.869Z,38.65
2022-08-27T02:10:26.985Z,37.55
2022-08-27T02:11:30.082Z,38.85
2022-08-27T02:12:33.630Z,39.28
2022-08-27T02:13:37.009Z,33.38
2022-08-27T02:14:39.075Z,33.25
2022-08-27T02:15:43.296Z,29.67
2022-08-27T02:16:52.093Z,35.30
2022-08-27T02:17:56.694Z,35.38
2022-08-27T02:18:58.791Z,30.83
2022-08-27T02:20:03.249Z,39.88
2022-08-27T02:21:05.919Z,32.88
2022-08-27T02:22:09.005Z,36.83
2022-08-27T02:23:11.574Z,33.20
2022-08-27T02:24:14.850Z,33.53
2022-08-27T02:25:20.128Z,34.63
2022-08-27T02:26:23.860Z,37.10
2022-08-27T02:27:25.923Z,38.88
2022-08-27T02:28:30.501Z,38.63
2022-08-27T02:29:33.824Z,35.20
2022-08-27T02:30:37.681Z,40.80
2022-08-27T02:31:42.155Z,40.40
2022-08-27T02:32:47.380Z,34.95
2022-08-27T02:33:49.504Z,40.30
2022-08-27T02:34:52.621Z,37.58
2022-08-27T02:35:55.117Z,35.42
2022-08-27T02:36:58.531Z,34.47
2022-08-27T02:38:00.969Z,38.15
2022-08-27T02:39:04.828Z,32.35
2022-08-27T02:40:08.889Z,34.92
2022-08-27T02:41:12.058Z,37.17
2022-08-27T02:42:14.146Z,38.65
2022-08-27T02:43:25.030Z,37.30
2022-08-27T02:44:29.129Z,39.00
2022-08-27T02:45:33.749Z,34.60
2022-08-27T02:46:38.764Z,36.05
2022-08-27T02:47:42.622Z,28.98
2022-08-27T02:48:44.744Z,30.30
2022-08-27T02:49:47.953Z,31.77
2022-08-27T02:50:50.111Z,33.35
2022-08-27T02:51:55.006Z,31.92
2022-08-27T02:52:57.928Z,31.88
2022-08-27T02:54:01.995Z,28.55
2022-08-27T02:55:04.982Z,35.47
2022-08-27T02:56:09.902Z,31.38
2022-08-27T02:57:12.429Z,37.22
2022-08-27T02:58:16.961Z,31.48
2022-08-27T02:59:19.725Z,32.25
2022-08-27T03:00:26.074Z,31.77
2022-08-27T03:01:28.262Z,27.13
2022-08-27T03:02:31.425Z,29.92
2022-08-27T03:03:33.700Z,32.67
2022-08-27T03:04:36.837Z,32.78
2022-08-27T03:05:39.518Z,33.30
2022-08-27T03:06:42.647Z,30.05
2022-08-27T03:07:45.336Z,30.33
2022-08-27T03:08:53.095Z,32.70
2022-08-27T03:09:55.647Z,35.10
2022-08-27T03:10:58.843Z,29.75
2022-08-27T03:12:01.694Z,39.28
2022-08-27T03:13:05.042Z,32.97
2022-08-27T03:14:07.189Z,35.15
2022-08-27T03:15:14.237Z,31.33
2022-08-27T03:16:17.923Z,31.83
2022-08-27T03:17:38.450Z,35.08
2022-08-27T03:18:41.648Z,28.30
2022-08-27T03:19:43.806Z,29.65
2022-08-27T03:20:49.907Z,35.67
2022-08-27T03:21:54.353Z,37.22
2022-08-27T03:22:58.028Z,35.90
2022-08-27T03:24:09.399Z,29.13
2022-08-27T03:25:15.016Z,26.20
2022-08-27T03:26:17.670Z,29.88
2022-08-27T03:27:20.725Z,32.05
2022-08-27T03:28:25.951Z,27.52
2022-08-27T03:29:28.412Z,33.35
2022-08-27T03:30:31.584Z,33.38
2022-08-27T03:31:35.135Z,31.35
2022-08-27T03:32:38.899Z,34.85
2022-08-27T03:33:41.117Z,31.60
2022-08-27T03:34:44.247Z,29.75
2022-08-27T03:35:51.530Z,30.13
2022-08-27T03:36:54.838Z,32.33
2022-08-27T03:37:56.994Z,34.35
2022-08-27T03:39:00.286Z,26.83
2022-08-27T03:40:04.095Z,29.33
2022-08-27T03:41:08.319Z,28.10
2022-08-27T03:42:10.523Z,29.67
2022-08-27T03:43:14.612Z,33.40
2022-08-27T03:44:21.558Z,31.63
2022-08-27T03:45:27.305Z,29.48
2022-08-27T03:46:31.047Z,29.98
2022-08-27T03:47:35.874Z,34.22
2022-08-27T03:48:38.450Z,26.15
2022-08-27T03:49:41.791Z,36.65
2022-08-27T03:50:46.887Z,35.40
2022-08-27T03:51:50.785Z,30.30
2022-08-27T03:52:52.905Z,30.33
2022-08-27T03:53:56.175Z,33.47
2022-08-27T03:54:59.127Z,26.75
2022-08-27T03:56:02.225Z,34.40
2022-08-27T03:57:05.573Z,32.72
2022-08-27T03:58:09.221Z,31.90
2022-08-27T03:59:11.427Z,33.63
2022-08-27T04:00:15.232Z,34.75
2022-08-27T04:01:19.420Z,30.90
2022-08-27T04:02:22.568Z,32.60
2022-08-27T04:03:27.188Z,28.73
2022-08-27T04:04:31.073Z,36.72
2022-08-27T04:05:34.417Z,30.92
2022-08-27T04:06:36.744Z,37.80
2022-08-27T04:07:40.088Z,28.13
2022-08-27T04:08:42.267Z,31.65
2022-08-27T04:09:45.334Z,27.83
2022-08-27T04:10:47.835Z,29.23
2022-08-27T04:11:51.032Z,29.40
2022-08-27T04:12:53.498Z,29.90
2022-08-27T04:13:58.276Z,34.20
2022-08-27T04:15:00.433Z,30.13
2022-08-27T04:16:06.321Z,30.30
2022-08-27T04:17:08.406Z,39.35
2022-08-27T04:18:12.152Z,31.77
2022-08-27T04:19:15.761Z,31.27
2022-08-27T04:20:35.081Z,27.38
2022-08-27T04:21:37.683Z,34.00
2022-08-27T04:22:40.955Z,31.05
2022-08-27T04:23:43.368Z,30.08
2022-08-27T04:24:46.469Z,32.28
2022-08-27T04:25:48.584Z,27.17
2022-08-27T04:26:51.575Z,31.60
2022-08-27T04:27:53.920Z,35.38
2022-08-27T04:28:58.835Z,30.40
2022-08-27T04:30:02.211Z,32.60
2022-08-27T04:31:05.520Z,29.83
2022-08-27T04:32:07.753Z,31.52
2022-08-27T04:33:10.896Z,29.05
2022-08-27T04:34:13.023Z,28.17
2022-08-27T04:35:17.871Z,25.08
2022-08-27T04:36:20.457Z,27.95
2022-08-27T04:37:23.716Z,25.15
2022-08-27T04:38:26.019Z,27.48
2022-08-27T04:39:32.797Z,23.10
2022-08-27T04:41:00.582Z,25.10
2022-08-27T04:42:03.665Z,29.15
2022-08-27T04:43:05.757Z,32.08
2022-08-27T04:44:10.898Z,27.90
2022-08-27T04:45:14.004Z,23.13
2022-08-27T04:46:20.762Z,25.02
2022-08-27T04:47:23.841Z,23.38
2022-08-27T04:48:26.132Z,27.73
2022-08-27T04:49:30.448Z,28.38
2022-08-27T04:50:40.464Z,26.25
2022-08-27T04:51:44.429Z,25.02
2022-08-27T04:52:47.844Z,24.42
2022-08-27T04:53:51.344Z,26.92
2022-08-27T04:54:53.795Z,28.20
2022-08-27T04:55:58.413Z,27.80
2022-08-27T04:57:01.069Z,26.83
2022-08-27T04:58:04.229Z,26.80
2022-08-27T04:59:08.807Z,27.85
2022-08-27T05:00:12.833Z,28.10
2022-08-27T05:01:17.384Z,25.23
2022-08-27T05:02:20.501Z,32.35
2022-08-27T05:03:24.308Z,26.98
2022-08-27T05:04:27.598Z,28.88
2022-08-27T05:05:29.738Z,26.70
2022-08-27T05:06:34.617Z,26.10
2022-08-27T05:07:37.788Z,27.48
2022-08-27T05:08:40.728Z,25.95
2022-08-27T05:09:43.753Z,25.88
2022-08-27T05:10:47.949Z,30.52
2022-08-27T05:11:52.161Z,25.98
2022-08-27T05:12:56.873Z,31.13
2022-08-27T05:14:04.728Z,25.95
2022-08-27T05:15:07.657Z,28.23
2022-08-27T05:16:13.779Z,27.63
2022-08-27T05:17:15.847Z,30.75
2022-08-27T05:18:18.967Z,21.95
2022-08-27T05:19:21.819Z,25.25
2022-08-27T05:20:25.036Z,24.33
2022-08-27T05:21:29.225Z,23.60
2022-08-27T05:22:33.847Z,27.65
2022-08-27T05:23:36.742Z,23.67
2022-08-27T05:24:41.636Z,29.52
2022-08-27T05:25:45.978Z,25.33
2022-08-27T05:26:50.440Z,26.33
2022-08-27T05:27:52.909Z,25.38
2022-08-27T05:28:56.284Z,30.05
2022-08-27T05:29:58.436Z,29.67
2022-08-27T05:31:05.924Z,28.27
2022-08-27T05:32:07.992Z,24.73
2022-08-27T05:33:11.658Z,22.83
2022-08-27T05:34:18.924Z,23.80
2022-08-27T05:35:26.743Z,21.05
2022-08-27T05:36:33.185Z,25.52
2022-08-27T05:37:37.120Z,24.33
2022-08-27T05:38:40.184Z,23.85
2022-08-27T05:39:43.249Z,25.95
2022-08-27T05:40:48.031Z,24.85
2022-08-27T05:41:52.427Z,31.05
2022-08-27T05:42:54.869Z,24.70
2022-08-27T05:43:59.354Z,27.10
2022-08-27T05:45:02.757Z,29.52
2022-08-27T05:46:07.136Z,29.75
2022-08-27T05:47:10.120Z,27.88
2022-08-27T05:48:14.017Z,33.97
2022-08-27T05:49:16.469Z,33.40
2022-08-27T05:50:23.439Z,29.05
2022-08-27T05:51:28.415Z,37.08
2022-08-27T05:52:31.522Z,27.05
2022-08-27T05:53:35.284Z,34.97
2022-08-27T05:54:38.567Z,32.00
2022-08-27T05:55:42.519Z,31.52
2022-08-27T05:56:46.042Z,26.27
2022-08-27T05:57:48.117Z,33.17
2022-08-27T05:59:08.961Z,29.75
2022-08-27T06:01:36.167Z,31.30
2022-08-27T06:02:39.396Z,28.52
2022-08-27T06:03:42.572Z,30.13
2022-08-27T06:04:45.727Z,29.55
2022-08-27T06:05:47.885Z,29.75
2022-08-27T06:06:52.163Z,28.88
2022-08-27T06:07:54.195Z,33.72
2022-08-27T06:08:58.595Z,28.52
2022-08-27T06:10:02.111Z,32.42
2022-08-27T06:11:06.348Z,25.88
2022-08-27T06:12:10.278Z,35.15
2022-08-27T06:13:12.400Z,34.63
2022-08-27T06:14:15.594Z,32.80
2022-08-27T06:15:17.886Z,25.52
2022-08-27T06:16:21.276Z,28.13
2022-08-27T06:17:23.439Z,26.50
2022-08-27T06:18:26.491Z,27.40
2022-08-27T06:19:29.005Z,32.00
2022-08-27T06:20:32.334Z,29.35
2022-08-27T06:21:34.838Z,29.48
2022-08-27T06:22:37.991Z,28.73
2022-08-27T06:23:40.103Z,31.13
2022-08-27T06:24:45.006Z,30.20
2022-08-27T06:25:47.117Z,28.73
2022-08-27T06:26:50.301Z,33.63
2022-08-27T06:27:52.456Z,30.45
2022-08-27T06:28:55.725Z,34.42
2022-08-27T06:29:57.858Z,31.00
2022-08-27T06:31:05.231Z,27.17
2022-08-27T06:32:09.482Z,26.50
2022-08-27T06:33:11.560Z,27.27
2022-08-27T06:34:16.547Z,32.58
2022-08-27T06:35:18.879Z,28.83
2022-08-27T06:36:25.461Z,27.98
2022-08-27T06:37:29.269Z,30.25
2022-08-27T06:38:31.785Z,26.35
2022-08-27T06:39:36.250Z,26.80
2022-08-27T06:40:42.266Z,26.33
2022-08-27T06:41:45.859Z,30.88
2022-08-27T06:42:48.196Z,31.33
2022-08-27T06:43:51.953Z,31.17
2022-08-27T06:44:54.621Z,27.30
2022-08-27T06:45:57.915Z,26.77
2022-08-27T06:47:00.094Z,27.85
2022-08-27T06:48:03.264Z,26.00
2022-08-27T06:49:05.635Z,29.15
2022-08-27T06:50:09.473Z,28.10
2022-08-27T06:51:14.059Z,26.30
2022-08-27T06:52:17.149Z,28.55
2022-08-27T06:53:19.242Z,28.98
2022-08-27T06:54:27.909Z,38.10
2022-08-27T06:55:33.092Z,33.22
2022-08-27T06:56:40.815Z,30.08
2022-08-27T06:57:43.216Z,34.42
2022-08-27T06:58:46.810Z,31.00
2022-08-27T06:59:49.829Z,31.33
2022-08-27T07:00:51.899Z,27.52
2022-08-27T07:01:55.391Z,32.75
2022-08-27T07:02:57.554Z,26.40
2022-08-27T07:04:04.238Z,29.05
2022-08-27T07:05:09.412Z,31.27
2022-08-27T07:06:13.289Z,31.05
2022-08-27T07:07:30.216Z,31.42
2022-08-27T07:08:39.665Z,32.08
2022-08-27T07:09:41.750Z,31.42
2022-08-27T07:10:44.841Z,32.75
2022-08-27T07:11:48.354Z,28.92
2022-08-27T07:12:51.419Z,28.90
2022-08-27T07:13:53.591Z,30.55
2022-08-27T07:14:56.698Z,30.55
2022-08-27T07:15:59.353Z,27.55
2022-08-27T07:17:03.161Z,33.40
2022-08-27T07:18:05.739Z,32.80
2022-08-27T07:19:08.897Z,30.33
2022-08-27T07:20:13.760Z,27.25
2022-08-27T07:21:16.871Z,33.25
2022-08-27T07:22:18.943Z,32.38
2022-08-27T07:23:22.068Z,25.02
2022-08-27T07:24:24.521Z,30.83
2022-08-27T07:25:27.668Z,26.98
2022-08-27T07:26:29.838Z,27.38
2022-08-27T07:27:34.392Z,24.63
2022-08-27T07:28:38.175Z,25.05
2022-08-27T07:29:41.575Z,27.40
2022-08-27T07:30:43.903Z,26.75
2022-08-27T07:31:47.259Z,28.20
2022-08-27T07:32:49.415Z,26.55
2022-08-27T07:33:53.382Z,27.35
2022-08-27T07:34:55.554Z,28.83
2022-08-27T07:35:58.866Z,26.75
2022-08-27T07:37:01.974Z,29.73
2022-08-27T07:38:04.175Z,32.13
2022-08-27T07:39:07.768Z,26.13
2022-08-27T07:40:14.412Z,22.02
2022-08-27T07:41:18.157Z,27.02
2022-08-27T07:42:38.755Z,28.13
2022-08-27T07:44:02.130Z,29.60
2022-08-27T07:45:05.782Z,27.13
2022-08-27T07:46:08.657Z,27.30
2022-08-27T07:47:11.879Z,32.45
2022-08-27T07:48:14.250Z,29.63
2022-08-27T07:49:17.772Z,26.50
2022-08-27T07:50:20.885Z,25.52
2022-08-27T07:51:26.091Z,29.38
2022-08-27T07:52:29.239Z,26.85
2022-08-27T07:53:32.376Z,36.47
2022-08-27T07:54:35.495Z,28.17
2022-08-27T07:55:37.961Z,30.55
2022-08-27T07:56:41.324Z,33.78
2022-08-27T07:57:44.853Z,24.02
2022-08-27T07:58:48.301Z,32.25
2022-08-27T07:59:53.179Z,29.10
2022-08-27T08:00:56.176Z,27.95
2022-08-27T08:01:59.260Z,29.17
2022-08-27T08:03:01.429Z,31.33
2022-08-27T08:04:05.261Z,33.65
2022-08-27T08:05:08.086Z,26.80
2022-08-27T08:06:14.175Z,27.50
2022-08-27T08:07:16.344Z,29.77
2022-08-27T08:08:19.437Z,23.48
2022-08-27T08:09:23.854Z,25.58
2022-08-27T08:10:27.426Z,23.55
2022-08-27T08:11:29.543Z,27.90
2022-08-27T08:12:32.713Z,24.92
2022-08-27T08:13:35.161Z,23.05
2022-08-27T08:14:42.799Z,25.13
2022-08-27T08:15:46.359Z,26.20
2022-08-27T08:16:49.606Z,21.05
2022-08-27T08:17:51.749Z,28.85
2022-08-27T08:18:55.053Z,29.10
2022-08-27T08:20:18.536Z,24.98
2022-08-27T08:21:20.591Z,24.52
2022-08-27T08:22:22.711Z,26.38
2022-08-27T08:23:25.795Z,24.38
2022-08-27T08:24:28.908Z,27.70
2022-08-27T08:25:38.462Z,26.65
2022-08-27T08:26:42.203Z,26.98
2022-08-27T08:27:45.123Z,25.40
2022-08-27T08:28:48.226Z,28.52
2022-08-27T08:29:51.902Z,27.98
2022-08-27T08:30:55.691Z,34.42
2022-08-27T08:31:57.888Z,29.73
2022-08-27T08:33:01.010Z,24.13
2022-08-27T08:34:03.588Z,29.08
2022-08-27T08:35:08.159Z,25.80
2022-08-27T08:36:11.823Z,27.10
2022-08-27T08:37:15.398Z,25.85
2022-08-27T08:38:18.239Z,25.50
2022-08-27T08:39:21.749Z,27.77
2022-08-27T08:40:34.584Z,24.30
2022-08-27T08:41:42.892Z,28.92
2022-08-27T08:42:53.725Z,23.27
2022-08-27T08:43:56.489Z,23.52
2022-08-27T08:45:04.425Z,23.40
2022-08-27T08:46:14.504Z,27.10
2022-08-27T08:47:21.532Z,21.23
2022-08-27T08:48:27.023Z,26.05
2022-08-27T08:51:02.186Z,27.13
2022-08-27T08:52:18.232Z,22.80
2022-08-27T08:53:43.849Z,20.80
2022-08-27T08:54:46.379Z,22.13
2022-08-27T08:55:53.994Z,20.10
2022-08-27T08:56:59.686Z,26.25
2022-08-27T08:58:12.620Z,21.48
2022-08-27T08:59:21.305Z,26.75
2022-08-27T09:00:24.176Z,20.27
2022-08-27T09:01:27.921Z,18.73
2022-08-27T09:02:30.054Z,22.58
2022-08-27T09:03:36.357Z,25.42
2022-08-27T09:04:38.651Z,20.70
2022-08-27T09:05:46.853Z,24.88
2022-08-27T09:06:54.722Z,19.73
2022-08-27T09:08:31.102Z,22.17
2022-08-27T09:09:38.340Z,23.38
2022-08-27T09:10:44.798Z,20.35
2022-08-27T09:11:57.563Z,26.05
2022-08-27T09:13:03.527Z,19.17
2022-08-27T09:14:21.276Z,24.58
2022-08-27T09:15:30.076Z,26.65
2022-08-27T09:16:32.577Z,20.70
2022-08-27T09:17:36.398Z,21.98
2022-08-27T09:18:40.852Z,29.02
2022-08-27T09:19:44.349Z,21.33
2022-08-27T09:20:50.983Z,25.33
2022-08-27T09:22:02.201Z,28.23
2022-08-27T09:23:11.937Z,22.35
2022-08-27T09:24:23.621Z,22.90
2022-08-27T09:25:31.742Z,23.00
2022-08-27T09:26:37.926Z,21.23
2022-08-27T09:27:42.952Z,21.42
2022-08-27T09:29:03.707Z,22.55
2022-08-27T09:30:10.649Z,23.52
2022-08-27T09:31:15.998Z,20.50
2022-08-27T09:32:24.431Z,20.30
2022-08-27T09:33:26.597Z,22.65
2022-08-27T09:34:47.443Z,22.93
2022-08-27T09:35:52.220Z,26.58
2022-08-27T09:37:07.426Z,23.20
2022-08-27T09:38:10.130Z,22.63
2022-08-27T09:39:15.021Z,22.23
2022-08-27T09:40:24.769Z,22.45
2022-08-27T09:41:29.927Z,22.55
2022-08-27T09:42:38.508Z,20.58
2022-08-27T09:43:43.812Z,23.65
2022-08-27T09:44:52.902Z,20.63
2022-08-27T09:45:59.492Z,21.13
2022-08-27T09:47:04.786Z,18.35
2022-08-27T09:48:10.927Z,19.75
2022-08-27T09:49:16.480Z,17.45
2022-08-27T09:50:22.065Z,18.33
2022-08-27T09:51:27.648Z,23.83
2022-08-27T09:52:37.915Z,19.15
2022-08-27T09:53:50.873Z,19.70
2022-08-27T09:54:55.811Z,19.92
2022-08-27T09:56:00.835Z,22.08
2022-08-27T09:57:02.881Z,17.45
2022-08-27T09:58:07.771Z,19.92
2022-08-27T09:59:12.674Z,23.67
2022-08-27T10:00:18.760Z,17.20
2022-08-27T10:01:22.919Z,21.08
2022-08-27T10:02:27.811Z,24.80
2022-08-27T10:03:33.450Z,21.90
2022-08-27T10:04:50.339Z,20.65
2022-08-27T10:05:55.284Z,22.75
2022-08-27T10:06:57.386Z,24.48
2022-08-27T10:08:06.218Z,21.52
2022-08-27T10:09:13.390Z,19.85
2022-08-27T10:10:22.413Z,22.30
2022-08-27T10:11:31.312Z,20.23
2022-08-27T10:12:42.799Z,19.08
2022-08-27T10:13:53.844Z,20.27
2022-08-27T10:15:00.454Z,20.05
2022-08-27T10:16:20.731Z,24.50
2022-08-27T10:17:31.019Z,23.20
2022-08-27T10:18:41.434Z,36.22
2022-08-27T10:19:57.433Z,20.42
2022-08-27T10:21:09.935Z,50.28
2022-08-27T10:22:20.528Z,19.27
2022-08-27T10:23:36.482Z,25.75
2022-08-27T10:24:48.943Z,25.05
2022-08-27T10:26:04.279Z,23.02
2022-08-27T10:27:14.197Z,22.13
2022-08-27T10:28:28.470Z,21.48
2022-08-27T10:29:36.064Z,24.40
2022-08-27T10:30:52.133Z,21.77
2022-08-27T10:32:07.159Z,23.30
2022-08-27T10:33:23.268Z,22.75
2022-08-27T10:34:34.282Z,25.42
2022-08-27T10:35:54.736Z,19.15
2022-08-27T10:37:09.954Z,24.73
2022-08-27T10:38:18.223Z,18.63
2022-08-27T10:39:38.185Z,23.10
2022-08-27T10:40:45.767Z,21.35
2022-08-27T10:41:56.107Z,19.23
2022-08-27T10:43:10.383Z,23.25
2022-08-27T10:44:27.065Z,25.92
2022-08-27T10:45:42.629Z,18.67
2022-08-27T10:47:03.713Z,18.73
2022-08-27T10:48:14.691Z,22.35
2022-08-27T10:49:23.828Z,23.33
2022-08-27T10:50:33.120Z,19.38
2022-08-27T10:51:41.916Z,18.40
2022-08-27T10:52:51.574Z,16.65
2022-08-27T10:54:06.031Z,17.30
2022-08-27T10:55:19.002Z,21.17
2022-08-27T10:56:28.973Z,17.77
2022-08-27T10:57:58.731Z,19.55
2022-08-27T10:59:14.647Z,20.10
2022-08-27T11:00:19.732Z,16.60
2022-08-27T11:01:34.900Z,11.55
2022-08-27T11:02:42.992Z,16.17
2022-08-27T11:03:49.346Z,16.13
2022-08-27T11:04:55.086Z,16.38
2022-08-27T11:06:02.878Z,17.67
2022-08-27T11:07:09.276Z,18.02
2022-08-27T11:08:18.481Z,16.77
2022-08-27T11:09:22.759Z,13.85
2022-08-27T11:10:30.732Z,15.73
2022-08-27T11:13:06.584Z,21.15
2022-08-27T11:14:19.971Z,18.75
2022-08-27T11:15:28.027Z,15.93
2022-08-27T11:16:37.063Z,13.88
2022-08-27T11:17:45.126Z,16.88
2022-08-27T11:18:52.830Z,17.17
2022-08-27T11:20:01.458Z,13.95
2022-08-27T11:21:10.674Z,15.13
2022-08-27T11:22:26.219Z,11.65
2022-08-27T11:23:38.649Z,16.02
2022-08-27T11:24:47.861Z,15.40
2022-08-27T11:25:59.579Z,14.65
2022-08-27T11:27:07.587Z,12.15
2022-08-27T11:28:12.771Z,16.30
2022-08-27T11:29:22.295Z,15.18
2022-08-27T11:30:36.049Z,12.50
2022-08-27T11:31:45.781Z,12.52
2022-08-27T11:32:58.655Z,12.40
2022-08-27T11:34:08.025Z,15.18
2022-08-27T11:35:19.129Z,13.65
2022-08-27T11:37:02.739Z,11.88
2022-08-27T11:38:31.351Z,13.00
2022-08-27T11:40:07.876Z,12.70
2022-08-27T11:41:53.695Z,14.80
2022-08-27T11:43:00.278Z,15.52
2022-08-27T11:44:04.480Z,10.30
2022-08-27T11:45:11.772Z,12.70
2022-08-27T11:46:25.177Z,12.18
2022-08-27T11:47:29.689Z,10.05
2022-08-27T11:48:33.684Z,10.05
2022-08-27T11:49:44.863Z,12.98
2022-08-27T11:51:00.805Z,10.35
2022-08-27T11:52:05.388Z,13.05
2022-08-27T11:53:09.631Z,10.27
2022-08-27T11:54:26.341Z,11.82
2022-08-27T11:55:33.303Z,10.77
2022-08-27T11:56:42.141Z,15.77
2022-08-27T11:57:46.212Z,10.18
2022-08-27T11:58:52.744Z,16.30
2022-08-27T11:59:56.953Z,12.45
2022-08-27T12:01:04.335Z,11.25
2022-08-27T12:02:24.307Z,12.35
2022-08-27T12:03:31.622Z,13.25
2022-08-27T12:04:37.455Z,13.23
2022-08-27T12:05:44.598Z,13.93
2022-08-27T12:06:53.561Z,13.02
2022-08-27T12:07:57.694Z,16.23
2022-08-27T12:09:14.858Z,15.65
2022-08-27T12:10:43.511Z,8.93
2022-08-27T12:11:59.909Z,9.85
2022-08-27T12:13:12.292Z,9.63
2022-08-27T12:14:32.265Z,12.98
2022-08-27T12:15:47.981Z,10.40
2022-08-27T12:16:59.521Z,9.27
2022-08-27T12:18:11.249Z,10.63
2022-08-27T12:19:25.552Z,12.55
2022-08-27T12:20:39.557Z,15.40
2022-08-27T12:21:53.326Z,13.13
2022-08-27T12:23:24.675Z,11.88
2022-08-27T12:24:49.231Z,10.32
2022-08-27T12:26:01.304Z,11.65
2022-08-27T12:27:18.148Z,11.18
2022-08-27T12:28:26.785Z,13.18
2022-08-27T12:29:39.316Z,14.68
2022-08-27T12:30:51.994Z,11.88
2022-08-27T12:32:00.397Z,13.88
2022-08-27T12:33:13.144Z,11.68
2022-08-27T12:34:16.840Z,14.70
2022-08-27T12:35:27.620Z,11.10
2022-08-27T12:36:33.614Z,12.00
2022-08-27T12:37:41.129Z,11.20
2022-08-27T12:38:50.517Z,15.38
2022-08-27T12:39:56.932Z,7.88
2022-08-27T12:41:03.920Z,16.27
2022-08-27T12:42:16.488Z,10.07
2022-08-27T12:43:22.410Z,10.75
2022-08-27T12:44:27.614Z,11.68
2022-08-27T12:45:31.178Z,14.35
2022-08-27T12:46:36.864Z,12.18
2022-08-27T12:47:50.879Z,13.40
2022-08-27T12:48:57.112Z,12.02
2022-08-27T12:50:02.717Z,16.13
2022-08-27T12:51:15.389Z,16.48
2022-08-27T12:52:35.248Z,15.07
2022-08-27T12:53:44.471Z,16.20
2022-08-27T12:54:59.125Z,11.23
2022-08-27T12:56:20.644Z,14.00
2022-08-27T12:57:33.040Z,13.88
2022-08-27T12:58:50.810Z,16.55
2022-08-27T13:00:12.484Z,9.68
2022-08-27T13:01:36.764Z,13.35
2022-08-27T13:03:15.939Z,11.27
2022-08-27T13:04:22.899Z,12.32
2022-08-27T13:05:25.600Z,12.13
2022-08-27T13:06:33.052Z,11.40
2022-08-27T13:07:41.101Z,13.07
2022-08-27T13:08:44.363Z,16.52
2022-08-27T13:09:47.452Z,13.50
2022-08-27T13:10:50.047Z,17.30
2022-08-27T13:11:56.581Z,10.98
2022-08-27T13:13:08.434Z,10.20
2022-08-27T13:14:12.315Z,12.82
2022-08-27T13:15:17.332Z,9.77
2022-08-27T13:16:21.315Z,10.93
2022-08-27T13:17:25.977Z,13.07
2022-08-27T13:18:30.083Z,14.23
2022-08-27T13:19:35.857Z,13.10
2022-08-27T13:20:40.232Z,11.75
2022-08-27T13:21:50.092Z,13.85
2022-08-27T13:22:54.040Z,11.90
2022-08-27T13:24:00.405Z,13.43
2022-08-27T13:25:02.978Z,11.75
2022-08-27T13:26:10.141Z,9.65
2022-08-27T13:27:13.167Z,10.73
2022-08-27T13:28:21.094Z,9.68
2022-08-27T13:29:24.060Z,9.30
2022-08-27T13:30:35.943Z,15.10
2022-08-27T13:31:39.853Z,10.80
2022-08-27T13:32:42.268Z,10.55
2022-08-27T13:33:46.069Z,11.88
2022-08-27T13:34:48.453Z,12.73
2022-08-27T13:35:52.221Z,10.43
2022-08-27T13:36:58.313Z,8.18
2022-08-27T13:38:03.550Z,7.82
2022-08-27T13:39:07.426Z,10.52
2022-08-27T13:40:11.405Z,12.93
2022-08-27T13:41:25.028Z,7.70
2022-08-27T13:42:27.868Z,10.35
2022-08-27T13:43:38.665Z,11.43
2022-08-27T13:44:41.424Z,11.07
2022-08-27T13:45:54.510Z,10.93
2022-08-27T13:47:02.289Z,9.80
2022-08-27T13:48:05.685Z,10.85
2022-08-27T13:49:18.166Z,14.90
2022-08-27T13:50:24.153Z,9.05
2022-08-27T13:51:30.987Z,10.07
2022-08-27T13:52:35.741Z,14.10
2022-08-27T13:54:03.336Z,8.55
2022-08-27T13:55:12.057Z,11.77
2022-08-27T13:56:28.605Z,11.55
2022-08-27T13:57:44.246Z,11.50
2022-08-27T13:58:49.340Z,10.55
2022-08-27T13:59:52.720Z,11.38
2022-08-27T14:01:09.116Z,10.50
2022-08-27T14:02:27.374Z,8.63
2022-08-27T14:03:34.040Z,8.30
2022-08-27T14:04:40.310Z,11.35
2022-08-27T14:05:52.100Z,11.57
2022-08-27T14:06:55.875Z,8.07
2022-08-27T14:08:00.052Z,10.85
2022-08-27T14:09:17.886Z,7.80
2022-08-27T14:10:34.754Z,7.18
2022-08-27T14:11:38.035Z,8.52
2022-08-27T14:12:43.743Z,10.88
2022-08-27T14:13:51.836Z,8.57
2022-08-27T14:14:59.077Z,11.18
2022-08-27T14:16:12.622Z,7.25
2022-08-27T14:17:29.095Z,7.50
2022-08-27T14:18:57.961Z,9.10
2022-08-27T14:20:05.807Z,8.70
2022-08-27T14:21:14.425Z,11.15
2022-08-27T14:22:23.627Z,14.90
2022-08-27T14:23:30.538Z,9.55